Time;durP1;ratioP1;P1;durP2;ratioP2;P2;SDS_P1;SDS_P2;PMS_P1;PMS_P2;Temp;Humidity;BMP_temperature;BMP_pressure;BME280_temperature;BME280_humidity;BME280_pressure;Samples;Min_cycle;Max_cycle;Signal;HPM_P1;HPM_P2
2023/06/14 00:04:36;;;;;;;;;;;21.30;54.30;;;;;;20913192;28;19932;-58
2023/06/14 00:14:37;;;;;;;;;;;21.40;54.00;;;;;;20912771;28;19925;-58
2023/06/14 00:24:37;;;;;;;;;;;21.40;54.20;;;;;;20911522;28;19932;-57
2023/06/14 00:34:38;;;;;;;;;;;21.20;54.20;;;;;;20911001;28;19932;-58
2023/06/14 00:44:38;;;;;;;;;;;21.40;53.30;;;;;;20913319;28;19932;-58
2023/06/14 00:54:40;;;;;;;;;;;21.40;53.00;;;;;;20927949;28;20353;-59
2023/06/14 01:04:45;;;;;;;;;;;21.30;53.40;;;;;;20927392;28;20048;-59
2023/06/14 01:14:48;;;;;;;;;;;21.30;53.50;;;;;;20926312;28;19925;-58
2023/06/14 01:24:49;;;;;;;;;;;21.40;51.30;;;;;;20924567;28;19925;-58
2023/06/14 01:34:49;;;;;;;;;;;21.20;51.60;;;;;;20925114;28;20019;-59
2023/06/14 01:44:51;;;;;;;;;;;21.10;52.20;;;;;;20922777;28;19983;-57
2023/06/14 01:54:51;;;;;;;;;;;21.10;52.60;;;;;;20923337;28;19925;-59
2023/06/14 02:04:52;;;;;;;;;;;21.00;53.70;;;;;;20921327;28;19924;-58
2023/06/14 02:14:53;;;;;;;;;;;20.80;54.40;;;;;;20921621;28;19943;-58
2023/06/14 02:24:54;;;;;;;;;;;20.70;54.90;;;;;;20921454;28;19932;-58
2023/06/14 02:34:55;;;;;;;;;;;20.60;55.30;;;;;;20920263;28;19970;-58
2023/06/14 02:44:55;;;;;;;;;;;20.50;55.60;;;;;;20918277;28;19924;-57
2023/06/14 02:54:56;;;;;;;;;;;20.40;55.30;;;;;;20917448;28;19929;-58
2023/06/14 03:05:01;;;;;;;;;;;20.30;55.30;;;;;;20916611;28;19976;-58
2023/06/14 03:15:02;;;;;;;;;;;20.20;55.60;;;;;;20916911;28;19925;-57
2023/06/14 03:25:04;;;;;;;;;;;20.30;55.60;;;;;;20915142;28;19928;-59
2023/06/14 03:35:05;;;;;;;;;;;20.40;53.80;;;;;;20915741;28;19929;-59
2023/06/14 03:45:06;;;;;;;;;;;20.00;54.50;;;;;;20914966;28;19932;-57
2023/06/14 03:55:07;;;;;;;;;;;19.90;54.60;;;;;;20913435;28;19924;-58
2023/06/14 04:05:08;;;;;;;;;;;19.70;55.20;;;;;;20914184;28;19932;-58
2023/06/14 04:15:09;;;;;;;;;;;19.80;55.50;;;;;;20913610;28;19924;-58
2023/06/14 04:25:10;;;;;;;;;;;19.60;56.30;;;;;;20924142;28;20039;-57
2023/06/14 04:35:10;;;;;;;;;;;19.50;56.80;;;;;;20927838;28;19976;-58
2023/06/14 04:45:15;;;;;;;;;;;19.50;56.70;;;;;;20927955;28;20493;-58
2023/06/14 04:55:15;;;;;;;;;;;19.40;56.80;;;;;;20927898;28;19928;-59
2023/06/14 05:05:17;;;;;;;;;;;19.40;57.20;;;;;;20927445;28;20015;-59
2023/06/14 05:15:18;;;;;;;;;;;19.20;57.50;;;;;;20926682;28;19947;-58
2023/06/14 05:25:19;;;;;;;;;;;19.30;57.60;;;;;;20924721;28;19972;-58
2023/06/14 05:35:22;;;;;;;;;;;19.40;57.90;;;;;;20923526;28;19990;-58
2023/06/14 05:45:22;;;;;;;;;;;19.50;57.80;;;;;;20924123;28;20350;-58
2023/06/14 05:55:23;;;;;;;;;;;19.40;58.50;;;;;;20923225;28;19948;-59
2023/06/14 06:05:23;;;;;;;;;;;19.40;59.20;;;;;;20920956;28;19925;-58
2023/06/14 06:15:24;;;;;;;;;;;19.40;59.30;;;;;;20921186;28;19975;-59
2023/06/14 06:25:25;;;;;;;;;;;19.30;59.20;;;;;;20919648;28;19931;-58
2023/06/14 06:35:26;;;;;;;;;;;19.50;58.80;;;;;;20920899;28;19925;-58
2023/06/14 06:45:27;;;;;;;;;;;19.70;57.80;;;;;;20917012;28;19932;-57
2023/06/14 06:55:27;;;;;;;;;;;19.90;56.90;;;;;;20917106;28;19925;-58
2023/06/14 07:05:28;;;;;;;;;;;20.60;55.40;;;;;;20916948;28;19924;-59
2023/06/14 07:15:29;;;;;;;;;;;21.50;52.20;;;;;;20914721;28;19972;-58
2023/06/14 07:25:29;;;;;;;;;;;22.40;49.80;;;;;;20913555;28;19972;-58
2023/06/14 07:35:30;;;;;;;;;;;22.90;47.70;;;;;;20914832;28;19925;-57
2023/06/14 07:45:31;;;;;;;;;;;23.40;46.10;;;;;;20914028;28;19982;-59
2023/06/14 07:55:32;;;;;;;;;;;23.60;45.70;;;;;;20913811;28;20063;-64
2023/06/14 08:05:33;;;;;;;;;;;24.00;45.60;;;;;;20913631;28;19963;-68
2023/06/14 08:15:33;;;;;;;;;;;24.30;44.50;;;;;;20912935;28;19925;-58
2023/06/14 08:25:34;;;;;;;;;;;24.40;42.70;;;;;;20911803;28;19928;-62
2023/06/14 08:35:39;;;;;;;;;;;24.60;42.80;;;;;;20912104;28;19928;-63
2023/06/14 08:45:40;;;;;;;;;;;24.70;42.60;;;;;;20912528;28;20076;-61
2023/06/14 08:55:40;;;;;;;;;;;25.10;42.40;;;;;;20910643;28;20378;-60
2023/06/14 09:05:41;;;;;;;;;;;25.40;41.60;;;;;;20912047;28;19960;-62
2023/06/14 09:15:42;;;;;;;;;;;25.50;41.50;;;;;;20925355;28;20287;-59
2023/06/14 09:25:46;;;;;;;;;;;25.60;41.70;;;;;;20924300;28;19925;-59
2023/06/14 09:35:50;;;;;;;;;;;25.80;42.00;;;;;;20922803;28;19994;-63
2023/06/14 09:45:51;;;;;;;;;;;26.00;41.40;;;;;;20923492;28;20270;-59
2023/06/14 09:55:52;;;;;;;;;;;25.80;42.20;;;;;;20922161;28;19924;-59
2023/06/14 10:05:54;;;;;;;;;;;25.70;42.10;;;;;;20921300;28;19947;-59
2023/06/14 10:15:58;;;;;;;;;;;25.50;41.70;;;;;;20920910;28;19928;-57
2023/06/14 10:26:00;;;;;;;;;;;25.70;41.60;;;;;;20917757;28;19925;-58
2023/06/14 10:36:36;;;;;;;;;;;25.90;41.60;;;;;;20918969;28;19971;-62
2023/06/14 10:46:36;;;;;;;;;;;25.90;42.00;;;;;;20916897;28;19925;-57
2023/06/14 10:56:37;;;;;;;;;;;25.90;41.30;;;;;;20915956;28;20361;-59
2023/06/14 11:06:48;;;;;;;;;;;26.10;40.50;;;;;;20916185;28;19954;-57
2023/06/14 11:16:49;;;;;;;;;;;25.90;40.90;;;;;;20915640;28;19925;-58
2023/06/14 11:26:50;;;;;;;;;;;26.20;40.00;;;;;;20913929;28;20286;-58
2023/06/14 11:36:50;;;;;;;;;;;26.30;39.20;;;;;;20911186;28;19925;-58
2023/06/14 11:46:51;;;;;;;;;;;26.60;39.60;;;;;;20911665;28;19975;-57
2023/06/14 11:56:52;;;;;;;;;;;26.60;39.20;;;;;;20911822;28;20381;-58
2023/06/14 12:06:55;;;;;;;;;;;26.60;39.10;;;;;;20912049;28;20008;-58
2023/06/14 12:17:03;;;;;;;;;;;26.80;38.70;;;;;;20912243;28;20393;-58
2023/06/14 12:27:04;;;;;;;;;;;26.90;38.40;;;;;;20910638;28;19925;-58
2023/06/14 12:37:06;;;;;;;;;;;26.90;38.10;;;;;;20911915;28;19935;-58
2023/06/14 12:47:07;;;;;;;;;;;27.00;38.10;;;;;;20922046;28;19925;-57
2023/06/14 12:57:08;;;;;;;;;;;27.20;38.30;;;;;;20927644;28;20289;-58
2023/06/14 13:07:10;;;;;;;;;;;27.40;37.20;;;;;;20927182;28;20014;-58
2023/06/14 13:17:11;;;;;;;;;;;27.10;37.30;;;;;;20924290;28;19925;-58
2023/06/14 13:27:14;;;;;;;;;;;27.20;37.40;;;;;;20924684;28;20395;-58
2023/06/14 13:37:14;;;;;;;;;;;27.60;36.70;;;;;;20925087;28;20366;-58
2023/06/14 13:47:15;;;;;;;;;;;27.80;36.60;;;;;;20923983;28;19929;-58
2023/06/14 13:57:16;;;;;;;;;;;27.90;36.40;;;;;;20922874;28;19925;-59
2023/06/14 14:07:17;;;;;;;;;;;27.90;36.40;;;;;;20921388;28;19972;-58
2023/06/14 14:17:17;;;;;;;;;;;27.70;36.80;;;;;;20921379;28;19932;-59
2023/06/14 14:27:18;;;;;;;;;;;27.70;36.60;;;;;;20919246;28;19947;-59
2023/06/14 14:37:18;;;;;;;;;;;27.60;37.10;;;;;;20920322;28;20377;-59
2023/06/14 14:47:19;;;;;;;;;;;27.80;36.60;;;;;;20919555;28;19925;-58
2023/06/14 14:57:20;;;;;;;;;;;28.00;36.90;;;;;;20918837;28;19925;-58
2023/06/14 15:07:20;;;;;;;;;;;28.30;36.30;;;;;;20917020;28;19925;-57
2023/06/14 15:17:21;;;;;;;;;;;28.40;36.20;;;;;;20916531;28;19931;-59
2023/06/14 15:27:22;;;;;;;;;;;28.40;36.30;;;;;;20914730;28;19948;-58
2023/06/14 15:37:23;;;;;;;;;;;28.10;36.20;;;;;;20915608;28;19936;-60
2023/06/14 15:47:23;;;;;;;;;;;28.00;36.20;;;;;;20915332;28;19925;-59
2023/06/14 15:57:24;;;;;;;;;;;27.90;36.40;;;;;;20914960;28;20008;-57
2023/06/14 16:07:25;;;;;;;;;;;27.70;36.80;;;;;;20914226;28;19931;-62
2023/06/14 16:17:26;;;;;;;;;;;27.60;37.60;;;;;;20916303;28;20015;-62
2023/06/14 16:27:26;;;;;;;;;;;27.60;37.40;;;;;;20928657;28;19931;-60
2023/06/14 16:37:27;;;;;;;;;;;27.40;37.70;;;;;;20928079;28;20005;-60
2023/06/14 16:47:27;;;;;;;;;;;27.30;37.80;;;;;;20928069;28;19932;-62
2023/06/14 16:57:28;;;;;;;;;;;27.30;37.90;;;;;;20927356;28;20324;-60
2023/06/14 17:07:29;;;;;;;;;;;27.20;37.70;;;;;;20925936;28;19971;-60
2023/06/14 17:17:29;;;;;;;;;;;27.20;38.10;;;;;;20926179;28;19929;-62
2023/06/14 17:27:30;;;;;;;;;;;27.30;37.90;;;;;;20923621;28;20406;-62
2023/06/14 17:37:31;;;;;;;;;;;27.20;37.90;;;;;;20924141;28;19932;-61
2023/06/14 17:47:31;;;;;;;;;;;27.30;38.00;;;;;;20923838;28;19928;-61
2023/06/14 17:57:32;;;;;;;;;;;27.40;37.70;;;;;;20923055;28;19925;-62
2023/06/14 18:07:32;;;;;;;;;;;27.20;38.00;;;;;;20922694;28;19925;-62
2023/06/14 18:17:33;;;;;;;;;;;27.20;38.30;;;;;;20921830;28;19925;-62
2023/06/14 18:27:33;;;;;;;;;;;27.30;38.20;;;;;;20920158;28;19924;-61
2023/06/14 18:37:34;;;;;;;;;;;27.30;38.20;;;;;;20919529;28;20011;-61
2023/06/14 18:47:35;;;;;;;;;;;27.20;38.40;;;;;;20918626;28;20028;-61
2023/06/14 18:57:35;;;;;;;;;;;27.10;38.50;;;;;;20919068;28;19969;-61
2023/06/14 19:07:36;;;;;;;;;;;27.10;38.20;;;;;;20917743;28;19928;-61
2023/06/14 19:17:37;;;;;;;;;;;27.00;38.80;;;;;;20917097;28;19924;-61
2023/06/14 19:27:37;;;;;;;;;;;26.90;39.60;;;;;;20915005;28;20008;-62
2023/06/14 19:37:38;;;;;;;;;;;26.70;39.50;;;;;;20914351;28;19925;-62
2023/06/14 19:47:38;;;;;;;;;;;26.60;39.80;;;;;;20914254;28;19968;-61
2023/06/14 19:57:39;;;;;;;;;;;26.40;40.50;;;;;;20914070;28;19993;-63
2023/06/14 20:07:40;;;;;;;;;;;26.30;40.90;;;;;;20913834;28;19931;-62
2023/06/14 20:17:41;;;;;;;;;;;26.30;39.10;;;;;;20911205;28;19925;-62
2023/06/14 20:27:42;;;;;;;;;;;26.30;37.60;;;;;;20911387;28;20428;-62
2023/06/14 20:37:43;;;;;;;;;;;26.10;38.00;;;;;;20911446;28;19932;-62
2023/06/14 20:47:43;;;;;;;;;;;26.10;37.40;;;;;;20910999;28;19925;-61
2023/06/14 20:57:44;;;;;;;;;;;25.80;37.50;;;;;;20909280;28;19932;-63
2023/06/14 21:07:45;;;;;;;;;;;25.80;37.30;;;;;;20919853;28;19925;-62
2023/06/14 21:17:46;;;;;;;;;;;25.60;37.90;;;;;;20925015;28;19935;-62
2023/06/14 21:27:46;;;;;;;;;;;25.50;38.20;;;;;;20923010;28;19924;-62
2023/06/14 21:37:47;;;;;;;;;;;25.40;38.70;;;;;;20924462;28;19924;-62
2023/06/14 21:47:49;;;;;;;;;;;25.40;38.70;;;;;;20924396;28;19925;-61
2023/06/14 21:57:50;;;;;;;;;;;25.20;38.80;;;;;;20923453;28;19970;-62
2023/06/14 22:07:51;;;;;;;;;;;25.00;39.80;;;;;;20923347;28;19929;-62
2023/06/14 22:17:51;;;;;;;;;;;24.70;40.80;;;;;;20922369;28;19925;-61
2023/06/14 22:27:52;;;;;;;;;;;24.50;41.80;;;;;;20920658;28;19925;-63
2023/06/14 22:37:53;;;;;;;;;;;24.30;42.60;;;;;;20921048;28;19925;-62
2023/06/14 22:47:54;;;;;;;;;;;24.10;43.20;;;;;;20920207;28;19964;-63
2023/06/14 22:57:55;;;;;;;;;;;23.90;44.00;;;;;;20917799;28;19932;-61
2023/06/14 23:07:55;;;;;;;;;;;23.80;44.50;;;;;;20918967;28;19995;-61
2023/06/14 23:17:56;;;;;;;;;;;23.60;45.70;;;;;;20917687;28;19929;-62
2023/06/14 23:27:58;;;;;;;;;;;23.30;47.20;;;;;;20915488;28;19925;-61
2023/06/14 23:37:59;;;;;;;;;;;23.20;48.70;;;;;;20916104;28;19924;-62
2023/06/14 23:48:00;;;;;;;;;;;23.00;49.60;;;;;;20914779;28;19925;-61
2023/06/14 23:58:01;;;;;;;;;;;22.90;50.30;;;;;;20913234;28;19925;-61
